sensor_id;sensor_type;location;lat;lon;timestamp;P1;durP1;ratioP1;P2;durP2;ratioP2
70549;SDS011;58101;48.658;2.328;2023-03-04T00:01:24;40.10;;;12.65;;
70549;SDS011;58101;48.658;2.328;2023-03-04T00:03:49;36.75;;;12.30;;
70549;SDS011;58101;48.658;2.328;2023-03-04T00:06:15;39.60;;;12.00;;
70549;SDS011;58101;48.658;2.328;2023-03-04T00:08:40;43.38;;;13.00;;
70549;SDS011;58101;48.658;2.328;2023-03-04T00:11:06;39.15;;;12.90;;
70549;SDS011;58101;48.658;2.328;2023-03-04T00:13:32;38.55;;;12.27;;
70549;SDS011;58101;48.658;2.328;2023-03-04T00:15:57;36.70;;;12.40;;
70549;SDS011;58101;48.658;2.328;2023-03-04T00:18:23;36.92;;;12.73;;
70549;SDS011;58101;48.658;2.328;2023-03-04T00:20:48;38.05;;;12.38;;
70549;SDS011;58101;48.658;2.328;2023-03-04T00:23:14;38.10;;;13.20;;
70549;SDS011;58101;48.658;2.328;2023-03-04T00:25:40;42.50;;;13.25;;
70549;SDS011;58101;48.658;2.328;2023-03-04T00:28:06;37.88;;;13.65;;
70549;SDS011;58101;48.658;2.328;2023-03-04T00:30:32;39.42;;;13.15;;
70549;SDS011;58101;48.658;2.328;2023-03-04T00:32:57;41.25;;;13.35;;
70549;SDS011;58101;48.658;2.328;2023-03-04T00:35:23;41.30;;;14.00;;
70549;SDS011;58101;48.658;2.328;2023-03-04T00:37:48;37.08;;;12.88;;
70549;SDS011;58101;48.658;2.328;2023-03-04T00:40:14;39.58;;;12.85;;
70549;SDS011;58101;48.658;2.328;2023-03-04T00:42:40;41.67;;;14.18;;
70549;SDS011;58101;48.658;2.328;2023-03-04T00:45:06;38.53;;;13.95;;
70549;SDS011;58101;48.658;2.328;2023-03-04T00:47:32;39.15;;;13.15;;
70549;SDS011;58101;48.658;2.328;2023-03-04T00:49:58;39.85;;;13.60;;
70549;SDS011;58101;48.658;2.328;2023-03-04T00:52:24;36.75;;;13.55;;
70549;SDS011;58101;48.658;2.328;2023-03-04T00:54:49;39.83;;;13.30;;
70549;SDS011;58101;48.658;2.328;2023-03-04T00:57:15;38.53;;;12.63;;
70549;SDS011;58101;48.658;2.328;2023-03-04T00:59:41;38.60;;;13.13;;
70549;SDS011;58101;48.658;2.328;2023-03-04T01:02:07;41.88;;;13.23;;
70549;SDS011;58101;48.658;2.328;2023-03-04T01:04:34;38.00;;;13.25;;
70549;SDS011;58101;48.658;2.328;2023-03-04T01:07:00;42.15;;;13.65;;
70549;SDS011;58101;48.658;2.328;2023-03-04T01:09:25;38.67;;;13.60;;
70549;SDS011;58101;48.658;2.328;2023-03-04T01:11:51;37.75;;;13.90;;
70549;SDS011;58101;48.658;2.328;2023-03-04T01:14:17;41.17;;;13.48;;
70549;SDS011;58101;48.658;2.328;2023-03-04T01:16:43;42.47;;;14.30;;
70549;SDS011;58101;48.658;2.328;2023-03-04T01:19:09;37.28;;;12.32;;
70549;SDS011;58101;48.658;2.328;2023-03-04T01:21:34;42.00;;;14.38;;
70549;SDS011;58101;48.658;2.328;2023-03-04T01:24:00;39.45;;;13.63;;
70549;SDS011;58101;48.658;2.328;2023-03-04T01:26:26;40.25;;;12.98;;
70549;SDS011;58101;48.658;2.328;2023-03-04T01:28:51;38.75;;;13.95;;
70549;SDS011;58101;48.658;2.328;2023-03-04T01:31:17;41.20;;;14.02;;
70549;SDS011;58101;48.658;2.328;2023-03-04T01:33:43;38.97;;;13.93;;
70549;SDS011;58101;48.658;2.328;2023-03-04T01:36:08;37.40;;;13.05;;
70549;SDS011;58101;48.658;2.328;2023-03-04T01:38:34;38.25;;;12.85;;
70549;SDS011;58101;48.658;2.328;2023-03-04T01:41:00;36.03;;;12.75;;
70549;SDS011;58101;48.658;2.328;2023-03-04T01:43:26;38.33;;;12.98;;
70549;SDS011;58101;48.658;2.328;2023-03-04T01:45:54;38.25;;;13.35;;
70549;SDS011;58101;48.658;2.328;2023-03-04T01:48:28;34.67;;;12.93;;
70549;SDS011;58101;48.658;2.328;2023-03-04T01:50:58;38.72;;;13.25;;
70549;SDS011;58101;48.658;2.328;2023-03-04T01:53:27;40.33;;;13.75;;
70549;SDS011;58101;48.658;2.328;2023-03-04T01:55:55;38.05;;;12.75;;
70549;SDS011;58101;48.658;2.328;2023-03-04T01:58:41;39.40;;;14.10;;
70549;SDS011;58101;48.658;2.328;2023-03-04T02:01:09;41.75;;;13.57;;
70549;SDS011;58101;48.658;2.328;2023-03-04T02:03:35;40.20;;;13.60;;
70549;SDS011;58101;48.658;2.328;2023-03-04T02:06:02;35.58;;;13.30;;
70549;SDS011;58101;48.658;2.328;2023-03-04T02:08:27;37.92;;;12.85;;
70549;SDS011;58101;48.658;2.328;2023-03-04T02:10:53;38.08;;;13.48;;
70549;SDS011;58101;48.658;2.328;2023-03-04T02:13:19;38.15;;;13.23;;
70549;SDS011;58101;48.658;2.328;2023-03-04T02:15:45;40.85;;;13.70;;
70549;SDS011;58101;48.658;2.328;2023-03-04T02:18:18;39.92;;;13.80;;
70549;SDS011;58101;48.658;2.328;2023-03-04T02:28:41;38.22;;;13.55;;
70549;SDS011;58101;48.658;2.328;2023-03-04T02:31:17;39.55;;;14.05;;
70549;SDS011;58101;48.658;2.328;2023-03-04T02:33:49;40.60;;;13.57;;
70549;SDS011;58101;48.658;2.328;2023-03-04T02:38:42;40.35;;;14.27;;
70549;SDS011;58101;48.658;2.328;2023-03-04T02:41:11;38.35;;;14.52;;
70549;SDS011;58101;48.658;2.328;2023-03-04T02:43:40;43.65;;;14.65;;
70549;SDS011;58101;48.658;2.328;2023-03-04T02:46:06;37.15;;;13.90;;
70549;SDS011;58101;48.658;2.328;2023-03-04T02:48:34;41.20;;;14.18;;
70549;SDS011;58101;48.658;2.328;2023-03-04T02:51:00;39.60;;;14.23;;
70549;SDS011;58101;48.658;2.328;2023-03-04T02:53:26;39.20;;;14.05;;
70549;SDS011;58101;48.658;2.328;2023-03-04T02:55:52;41.63;;;14.80;;
70549;SDS011;58101;48.658;2.328;2023-03-04T02:58:18;44.17;;;14.73;;
70549;SDS011;58101;48.658;2.328;2023-03-04T03:00:44;42.42;;;14.98;;
70549;SDS011;58101;48.658;2.328;2023-03-04T03:03:09;38.75;;;14.98;;
70549;SDS011;58101;48.658;2.328;2023-03-04T03:05:35;38.92;;;14.52;;
70549;SDS011;58101;48.658;2.328;2023-03-04T03:08:02;42.28;;;14.40;;
70549;SDS011;58101;48.658;2.328;2023-03-04T03:10:28;42.38;;;14.85;;
70549;SDS011;58101;48.658;2.328;2023-03-04T03:12:53;40.75;;;14.75;;
70549;SDS011;58101;48.658;2.328;2023-03-04T03:15:19;39.90;;;14.70;;
70549;SDS011;58101;48.658;2.328;2023-03-04T03:17:45;40.00;;;14.63;;
70549;SDS011;58101;48.658;2.328;2023-03-04T03:20:11;41.70;;;16.08;;
70549;SDS011;58101;48.658;2.328;2023-03-04T03:22:38;40.75;;;15.13;;
70549;SDS011;58101;48.658;2.328;2023-03-04T03:25:05;41.97;;;15.48;;
70549;SDS011;58101;48.658;2.328;2023-03-04T03:27:31;42.70;;;15.73;;
70549;SDS011;58101;48.658;2.328;2023-03-04T03:29:57;41.53;;;15.25;;
70549;SDS011;58101;48.658;2.328;2023-03-04T03:32:23;39.22;;;14.98;;
70549;SDS011;58101;48.658;2.328;2023-03-04T03:34:48;43.35;;;15.88;;
70549;SDS011;58101;48.658;2.328;2023-03-04T03:37:14;39.05;;;15.43;;
70549;SDS011;58101;48.658;2.328;2023-03-04T03:39:40;42.70;;;16.30;;
70549;SDS011;58101;48.658;2.328;2023-03-04T03:42:05;50.00;;;16.63;;
70549;SDS011;58101;48.658;2.328;2023-03-04T03:44:31;43.47;;;15.63;;
70549;SDS011;58101;48.658;2.328;2023-03-04T03:46:57;41.20;;;14.93;;
70549;SDS011;58101;48.658;2.328;2023-03-04T03:49:22;42.05;;;15.50;;
70549;SDS011;58101;48.658;2.328;2023-03-04T03:51:48;43.63;;;16.30;;
70549;SDS011;58101;48.658;2.328;2023-03-04T03:54:14;39.60;;;15.77;;
70549;SDS011;58101;48.658;2.328;2023-03-04T03:56:39;44.60;;;15.80;;
70549;SDS011;58101;48.658;2.328;2023-03-04T03:59:05;44.70;;;15.70;;
70549;SDS011;58101;48.658;2.328;2023-03-04T04:01:31;43.13;;;15.80;;
70549;SDS011;58101;48.658;2.328;2023-03-04T04:03:57;39.10;;;15.23;;
70549;SDS011;58101;48.658;2.328;2023-03-04T04:06:24;40.10;;;15.43;;
70549;SDS011;58101;48.658;2.328;2023-03-04T04:08:49;43.33;;;15.82;;
70549;SDS011;58101;48.658;2.328;2023-03-04T04:11:15;41.83;;;15.57;;
70549;SDS011;58101;48.658;2.328;2023-03-04T04:13:41;39.55;;;15.27;;
70549;SDS011;58101;48.658;2.328;2023-03-04T04:16:07;41.97;;;15.60;;
70549;SDS011;58101;48.658;2.328;2023-03-04T04:18:33;43.80;;;16.63;;
70549;SDS011;58101;48.658;2.328;2023-03-04T04:20:59;43.83;;;16.27;;
70549;SDS011;58101;48.658;2.328;2023-03-04T04:23:24;41.53;;;15.93;;
70549;SDS011;58101;48.658;2.328;2023-03-04T04:25:50;41.80;;;15.52;;
70549;SDS011;58101;48.658;2.328;2023-03-04T04:28:18;37.88;;;15.43;;
70549;SDS011;58101;48.658;2.328;2023-03-04T04:30:43;41.90;;;15.52;;
70549;SDS011;58101;48.658;2.328;2023-03-04T04:33:09;40.92;;;15.52;;
70549;SDS011;58101;48.658;2.328;2023-03-04T04:35:35;42.20;;;14.93;;
70549;SDS011;58101;48.658;2.328;2023-03-04T04:38:02;40.53;;;15.48;;
70549;SDS011;58101;48.658;2.328;2023-03-04T04:40:28;44.05;;;15.48;;
70549;SDS011;58101;48.658;2.328;2023-03-04T04:42:54;42.42;;;15.52;;
70549;SDS011;58101;48.658;2.328;2023-03-04T04:45:20;39.33;;;15.02;;
70549;SDS011;58101;48.658;2.328;2023-03-04T04:47:48;40.80;;;15.73;;
70549;SDS011;58101;48.658;2.328;2023-03-04T04:50:15;42.47;;;15.23;;
70549;SDS011;58101;48.658;2.328;2023-03-04T04:52:40;40.58;;;14.88;;
70549;SDS011;58101;48.658;2.328;2023-03-04T04:55:06;44.25;;;15.05;;
70549;SDS011;58101;48.658;2.328;2023-03-04T04:57:33;38.92;;;15.52;;
70549;SDS011;58101;48.658;2.328;2023-03-04T04:59:59;40.42;;;15.23;;
70549;SDS011;58101;48.658;2.328;2023-03-04T05:02:24;41.72;;;15.95;;
70549;SDS011;58101;48.658;2.328;2023-03-04T05:04:50;42.70;;;15.35;;
70549;SDS011;58101;48.658;2.328;2023-03-04T05:07:16;40.58;;;15.65;;
70549;SDS011;58101;48.658;2.328;2023-03-04T05:09:41;41.72;;;15.85;;
70549;SDS011;58101;48.658;2.328;2023-03-04T05:12:07;40.83;;;15.25;;
70549;SDS011;58101;48.658;2.328;2023-03-04T05:14:32;42.55;;;14.93;;
70549;SDS011;58101;48.658;2.328;2023-03-04T05:16:58;41.97;;;15.90;;
70549;SDS011;58101;48.658;2.328;2023-03-04T05:19:24;44.13;;;15.93;;
70549;SDS011;58101;48.658;2.328;2023-03-04T05:21:49;45.90;;;15.25;;
70549;SDS011;58101;48.658;2.328;2023-03-04T05:24:15;41.58;;;15.52;;
70549;SDS011;58101;48.658;2.328;2023-03-04T05:26:41;42.50;;;15.02;;
70549;SDS011;58101;48.658;2.328;2023-03-04T05:29:06;45.53;;;16.45;;
70549;SDS011;58101;48.658;2.328;2023-03-04T05:31:32;43.33;;;16.02;;
70549;SDS011;58101;48.658;2.328;2023-03-04T05:33:58;43.10;;;15.70;;
70549;SDS011;58101;48.658;2.328;2023-03-04T05:36:23;42.97;;;15.73;;
70549;SDS011;58101;48.658;2.328;2023-03-04T05:38:49;40.70;;;15.48;;
70549;SDS011;58101;48.658;2.328;2023-03-04T05:41:14;44.97;;;16.17;;
70549;SDS011;58101;48.658;2.328;2023-03-04T05:43:43;44.25;;;17.02;;
70549;SDS011;58101;48.658;2.328;2023-03-04T05:46:15;38.95;;;15.27;;
70549;SDS011;58101;48.658;2.328;2023-03-04T05:48:42;46.67;;;16.95;;
70549;SDS011;58101;48.658;2.328;2023-03-04T05:51:08;44.47;;;17.20;;
70549;SDS011;58101;48.658;2.328;2023-03-04T05:53:34;44.55;;;16.23;;
70549;SDS011;58101;48.658;2.328;2023-03-04T05:56:12;43.45;;;16.63;;
70549;SDS011;58101;48.658;2.328;2023-03-04T05:58:39;43.90;;;17.00;;
70549;SDS011;58101;48.658;2.328;2023-03-04T06:01:05;49.22;;;17.90;;
70549;SDS011;58101;48.658;2.328;2023-03-04T06:03:31;43.45;;;15.98;;
70549;SDS011;58101;48.658;2.328;2023-03-04T06:05:58;44.83;;;16.67;;
70549;SDS011;58101;48.658;2.328;2023-03-04T06:08:24;46.40;;;16.92;;
70549;SDS011;58101;48.658;2.328;2023-03-04T06:10:53;46.83;;;16.70;;
70549;SDS011;58101;48.658;2.328;2023-03-04T06:13:20;41.85;;;15.38;;
70549;SDS011;58101;48.658;2.328;2023-03-04T06:15:47;41.63;;;15.90;;
70549;SDS011;58101;48.658;2.328;2023-03-04T06:18:20;43.25;;;16.60;;
70549;SDS011;58101;48.658;2.328;2023-03-04T06:20:47;47.28;;;16.80;;
70549;SDS011;58101;48.658;2.328;2023-03-04T06:23:13;47.60;;;17.55;;
70549;SDS011;58101;48.658;2.328;2023-03-04T06:25:38;45.30;;;16.83;;
70549;SDS011;58101;48.658;2.328;2023-03-04T06:28:04;51.35;;;17.85;;
70549;SDS011;58101;48.658;2.328;2023-03-04T06:30:29;49.22;;;17.98;;
70549;SDS011;58101;48.658;2.328;2023-03-04T06:32:55;49.65;;;17.88;;
70549;SDS011;58101;48.658;2.328;2023-03-04T06:35:21;46.58;;;17.63;;
70549;SDS011;58101;48.658;2.328;2023-03-04T06:37:47;45.75;;;17.05;;
70549;SDS011;58101;48.658;2.328;2023-03-04T06:40:12;50.30;;;17.45;;
70549;SDS011;58101;48.658;2.328;2023-03-04T06:42:39;52.80;;;17.20;;
70549;SDS011;58101;48.658;2.328;2023-03-04T06:45:05;47.67;;;16.38;;
70549;SDS011;58101;48.658;2.328;2023-03-04T06:47:31;44.90;;;16.08;;
70549;SDS011;58101;48.658;2.328;2023-03-04T06:49:57;44.78;;;16.05;;
70549;SDS011;58101;48.658;2.328;2023-03-04T06:52:22;44.78;;;16.10;;
70549;SDS011;58101;48.658;2.328;2023-03-04T06:54:48;45.65;;;17.13;;
70549;SDS011;58101;48.658;2.328;2023-03-04T06:57:14;44.38;;;15.73;;
70549;SDS011;58101;48.658;2.328;2023-03-04T06:59:40;42.90;;;16.27;;
70549;SDS011;58101;48.658;2.328;2023-03-04T07:02:05;48.08;;;15.55;;
70549;SDS011;58101;48.658;2.328;2023-03-04T07:04:34;44.70;;;16.95;;
70549;SDS011;58101;48.658;2.328;2023-03-04T07:06:59;46.22;;;16.77;;
70549;SDS011;58101;48.658;2.328;2023-03-04T07:09:25;41.45;;;15.75;;
70549;SDS011;58101;48.658;2.328;2023-03-04T07:11:50;43.35;;;15.75;;
70549;SDS011;58101;48.658;2.328;2023-03-04T07:14:16;39.53;;;15.20;;
70549;SDS011;58101;48.658;2.328;2023-03-04T07:16:42;43.63;;;16.83;;
70549;SDS011;58101;48.658;2.328;2023-03-04T07:19:07;44.13;;;16.58;;
70549;SDS011;58101;48.658;2.328;2023-03-04T07:21:33;40.42;;;14.95;;
70549;SDS011;58101;48.658;2.328;2023-03-04T07:23:59;46.47;;;16.17;;
70549;SDS011;58101;48.658;2.328;2023-03-04T07:26:24;40.45;;;15.77;;
70549;SDS011;58101;48.658;2.328;2023-03-04T07:28:50;43.75;;;16.30;;
70549;SDS011;58101;48.658;2.328;2023-03-04T07:31:25;45.70;;;16.92;;
70549;SDS011;58101;48.658;2.328;2023-03-04T07:33:55;46.85;;;16.52;;
70549;SDS011;58101;48.658;2.328;2023-03-04T07:36:22;41.22;;;16.38;;
70549;SDS011;58101;48.658;2.328;2023-03-04T07:38:48;41.92;;;15.93;;
70549;SDS011;58101;48.658;2.328;2023-03-04T07:41:15;38.15;;;15.57;;
70549;SDS011;58101;48.658;2.328;2023-03-04T07:43:41;48.47;;;16.60;;
70549;SDS011;58101;48.658;2.328;2023-03-04T07:46:08;43.30;;;15.80;;
70549;SDS011;58101;48.658;2.328;2023-03-04T07:48:34;36.13;;;15.07;;
70549;SDS011;58101;48.658;2.328;2023-03-04T07:51:04;34.72;;;14.50;;
70549;SDS011;58101;48.658;2.328;2023-03-04T07:53:36;35.83;;;13.85;;
70549;SDS011;58101;48.658;2.328;2023-03-04T07:56:04;37.70;;;14.70;;
70549;SDS011;58101;48.658;2.328;2023-03-04T07:58:30;35.20;;;14.45;;
70549;SDS011;58101;48.658;2.328;2023-03-04T08:00:56;37.25;;;14.95;;
70549;SDS011;58101;48.658;2.328;2023-03-04T08:03:22;35.92;;;14.43;;
70549;SDS011;58101;48.658;2.328;2023-03-04T08:05:49;37.13;;;13.95;;
70549;SDS011;58101;48.658;2.328;2023-03-04T08:08:15;34.30;;;14.30;;
70549;SDS011;58101;48.658;2.328;2023-03-04T08:10:40;30.58;;;13.60;;
70549;SDS011;58101;48.658;2.328;2023-03-04T08:13:06;32.10;;;13.43;;
70549;SDS011;58101;48.658;2.328;2023-03-04T08:15:32;30.40;;;12.65;;
70549;SDS011;58101;48.658;2.328;2023-03-04T08:17:59;30.00;;;13.77;;
70549;SDS011;58101;48.658;2.328;2023-03-04T08:20:26;27.60;;;12.73;;
70549;SDS011;58101;48.658;2.328;2023-03-04T08:22:51;26.45;;;13.05;;
70549;SDS011;58101;48.658;2.328;2023-03-04T08:25:17;26.75;;;13.23;;
70549;SDS011;58101;48.658;2.328;2023-03-04T08:27:43;24.08;;;12.43;;
70549;SDS011;58101;48.658;2.328;2023-03-04T08:30:09;26.75;;;13.43;;
70549;SDS011;58101;48.658;2.328;2023-03-04T08:32:35;24.02;;;12.57;;
70549;SDS011;58101;48.658;2.328;2023-03-04T08:35:00;24.85;;;13.45;;
70549;SDS011;58101;48.658;2.328;2023-03-04T08:37:28;25.90;;;13.43;;
70549;SDS011;58101;48.658;2.328;2023-03-04T08:39:54;24.88;;;12.98;;
70549;SDS011;58101;48.658;2.328;2023-03-04T08:42:19;24.13;;;13.27;;
70549;SDS011;58101;48.658;2.328;2023-03-04T08:44:45;24.70;;;14.05;;
70549;SDS011;58101;48.658;2.328;2023-03-04T08:47:11;26.67;;;13.45;;
70549;SDS011;58101;48.658;2.328;2023-03-04T08:49:36;24.73;;;13.77;;
70549;SDS011;58101;48.658;2.328;2023-03-04T08:52:02;27.63;;;13.98;;
70549;SDS011;58101;48.658;2.328;2023-03-04T08:54:28;23.85;;;13.25;;
70549;SDS011;58101;48.658;2.328;2023-03-04T08:56:53;28.50;;;13.15;;
70549;SDS011;58101;48.658;2.328;2023-03-04T08:59:19;27.08;;;13.85;;
70549;SDS011;58101;48.658;2.328;2023-03-04T09:01:45;25.42;;;13.07;;
70549;SDS011;58101;48.658;2.328;2023-03-04T09:04:10;24.23;;;12.32;;
70549;SDS011;58101;48.658;2.328;2023-03-04T09:06:36;24.42;;;11.68;;
70549;SDS011;58101;48.658;2.328;2023-03-04T09:09:02;31.90;;;13.68;;
70549;SDS011;58101;48.658;2.328;2023-03-04T09:11:28;36.20;;;14.90;;
70549;SDS011;58101;48.658;2.328;2023-03-04T09:13:54;55.85;;;18.88;;
70549;SDS011;58101;48.658;2.328;2023-03-04T09:16:19;70.50;;;25.42;;
70549;SDS011;58101;48.658;2.328;2023-03-04T09:18:45;63.97;;;21.90;;
70549;SDS011;58101;48.658;2.328;2023-03-04T09:21:11;30.55;;;13.15;;
70549;SDS011;58101;48.658;2.328;2023-03-04T09:23:37;28.05;;;12.63;;
70549;SDS011;58101;48.658;2.328;2023-03-04T09:26:20;33.25;;;11.68;;
70549;SDS011;58101;48.658;2.328;2023-03-04T09:28:52;27.33;;;12.00;;
70549;SDS011;58101;48.658;2.328;2023-03-04T09:31:19;25.98;;;10.68;;
70549;SDS011;58101;48.658;2.328;2023-03-04T09:33:45;25.05;;;11.10;;
70549;SDS011;58101;48.658;2.328;2023-03-04T09:36:11;27.15;;;11.65;;
70549;SDS011;58101;48.658;2.328;2023-03-04T09:38:38;25.23;;;10.65;;
70549;SDS011;58101;48.658;2.328;2023-03-04T09:41:06;25.75;;;10.57;;
70549;SDS011;58101;48.658;2.328;2023-03-04T09:43:34;25.70;;;10.25;;
70549;SDS011;58101;48.658;2.328;2023-03-04T09:46:04;22.95;;;10.02;;
70549;SDS011;58101;48.658;2.328;2023-03-04T09:48:44;24.02;;;9.82;;
70549;SDS011;58101;48.658;2.328;2023-03-04T09:56:32;27.52;;;10.27;;
70549;SDS011;58101;48.658;2.328;2023-03-04T10:06:49;22.60;;;9.18;;
70549;SDS011;58101;48.658;2.328;2023-03-04T10:10:04;24.73;;;9.43;;
70549;SDS011;58101;48.658;2.328;2023-03-04T10:12:10;24.92;;;9.15;;
70549;SDS011;58101;48.658;2.328;2023-03-04T10:19:53;27.83;;;9.25;;
70549;SDS011;58101;48.658;2.328;2023-03-04T10:22:36;24.00;;;9.68;;
70549;SDS011;58101;48.658;2.328;2023-03-04T10:25:20;23.70;;;9.45;;
70549;SDS011;58101;48.658;2.328;2023-03-04T10:27:55;27.17;;;9.52;;
70549;SDS011;58101;48.658;2.328;2023-03-04T10:30:34;26.45;;;10.00;;
70549;SDS011;58101;48.658;2.328;2023-03-04T10:33:12;27.80;;;10.73;;
70549;SDS011;58101;48.658;2.328;2023-03-04T10:35:41;27.38;;;9.88;;
70549;SDS011;58101;48.658;2.328;2023-03-04T10:38:10;27.23;;;9.45;;
70549;SDS011;58101;48.658;2.328;2023-03-04T10:40:40;23.88;;;9.30;;
70549;SDS011;58101;48.658;2.328;2023-03-04T10:43:16;25.63;;;9.77;;
70549;SDS011;58101;48.658;2.328;2023-03-04T10:45:43;28.30;;;9.55;;
70549;SDS011;58101;48.658;2.328;2023-03-04T10:48:16;24.65;;;8.73;;
70549;SDS011;58101;48.658;2.328;2023-03-04T10:50:53;22.17;;;8.60;;
70549;SDS011;58101;48.658;2.328;2023-03-04T10:53:35;22.60;;;9.02;;
70549;SDS011;58101;48.658;2.328;2023-03-04T10:56:07;22.55;;;9.65;;
70549;SDS011;58101;48.658;2.328;2023-03-04T11:02:10;26.33;;;8.40;;
70549;SDS011;58101;48.658;2.328;2023-03-04T11:04:38;26.90;;;9.20;;
70549;SDS011;58101;48.658;2.328;2023-03-04T11:07:08;24.83;;;9.15;;
70549;SDS011;58101;48.658;2.328;2023-03-04T11:09:34;25.92;;;9.23;;
70549;SDS011;58101;48.658;2.328;2023-03-04T11:12:01;26.65;;;9.63;;
70549;SDS011;58101;48.658;2.328;2023-03-04T11:14:34;24.02;;;8.77;;
70549;SDS011;58101;48.658;2.328;2023-03-04T11:17:21;20.92;;;8.45;;
70549;SDS011;58101;48.658;2.328;2023-03-04T11:19:52;23.58;;;8.98;;
70549;SDS011;58101;48.658;2.328;2023-03-04T11:22:22;22.08;;;8.18;;
70549;SDS011;58101;48.658;2.328;2023-03-04T11:24:57;25.48;;;8.52;;
70549;SDS011;58101;48.658;2.328;2023-03-04T11:27:37;20.85;;;8.07;;
70549;SDS011;58101;48.658;2.328;2023-03-04T11:30:20;20.73;;;8.20;;
70549;SDS011;58101;48.658;2.328;2023-03-04T11:32:54;21.48;;;8.45;;
70549;SDS011;58101;48.658;2.328;2023-03-04T11:35:31;22.25;;;8.25;;
70549;SDS011;58101;48.658;2.328;2023-03-04T11:38:18;21.85;;;8.95;;
70549;SDS011;58101;48.658;2.328;2023-03-04T11:40:52;21.25;;;8.13;;
70549;SDS011;58101;48.658;2.328;2023-03-04T11:43:29;19.90;;;7.85;;
70549;SDS011;58101;48.658;2.328;2023-03-04T11:54:21;22.30;;;7.95;;
70549;SDS011;58101;48.658;2.328;2023-03-04T12:28:09;23.45;;;9.40;;
70549;SDS011;58101;48.658;2.328;2023-03-04T12:36:08;28.65;;;9.63;;
70549;SDS011;58101;48.658;2.328;2023-03-04T12:42:14;22.42;;;8.63;;
70549;SDS011;58101;48.658;2.328;2023-03-04T12:53:46;23.75;;;8.32;;
70549;SDS011;58101;48.658;2.328;2023-03-04T12:56:57;22.75;;;7.82;;
70549;SDS011;58101;48.658;2.328;2023-03-04T12:59:08;22.67;;;7.68;;
70549;SDS011;58101;48.658;2.328;2023-03-04T13:01:45;20.98;;;7.35;;
70549;SDS011;58101;48.658;2.328;2023-03-04T13:07:42;22.15;;;7.35;;
70549;SDS011;58101;48.658;2.328;2023-03-04T13:10:21;20.80;;;8.10;;
70549;SDS011;58101;48.658;2.328;2023-03-04T13:15:34;21.35;;;7.72;;
70549;SDS011;58101;48.658;2.328;2023-03-04T13:21:15;23.13;;;8.07;;
70549;SDS011;58101;48.658;2.328;2023-03-04T13:23:41;23.35;;;9.15;;
70549;SDS011;58101;48.658;2.328;2023-03-04T13:26:15;25.10;;;8.27;;
70549;SDS011;58101;48.658;2.328;2023-03-04T13:32:01;23.13;;;8.55;;
70549;SDS011;58101;48.658;2.328;2023-03-04T13:34:48;23.45;;;8.07;;
70549;SDS011;58101;48.658;2.328;2023-03-04T13:42:48;25.15;;;7.82;;
70549;SDS011;58101;48.658;2.328;2023-03-04T13:45:33;24.38;;;8.07;;
70549;SDS011;58101;48.658;2.328;2023-03-04T13:48:00;22.88;;;8.30;;
70549;SDS011;58101;48.658;2.328;2023-03-04T13:50:44;23.75;;;8.32;;
70549;SDS011;58101;48.658;2.328;2023-03-04T13:53:45;23.13;;;8.20;;
70549;SDS011;58101;48.658;2.328;2023-03-04T13:58:47;24.35;;;8.88;;
70549;SDS011;58101;48.658;2.328;2023-03-04T14:01:26;25.60;;;9.05;;
70549;SDS011;58101;48.658;2.328;2023-03-04T14:03:55;22.92;;;8.77;;
70549;SDS011;58101;48.658;2.328;2023-03-04T14:06:23;26.90;;;9.02;;
70549;SDS011;58101;48.658;2.328;2023-03-04T14:08:51;28.13;;;9.55;;
70549;SDS011;58101;48.658;2.328;2023-03-04T14:11:23;22.20;;;8.57;;
70549;SDS011;58101;48.658;2.328;2023-03-04T14:13:49;22.23;;;8.48;;
70549;SDS011;58101;48.658;2.328;2023-03-04T14:16:19;22.80;;;8.20;;
70549;SDS011;58101;48.658;2.328;2023-03-04T14:18:54;23.17;;;8.38;;
70549;SDS011;58101;48.658;2.328;2023-03-04T14:21:25;21.13;;;7.95;;
70549;SDS011;58101;48.658;2.328;2023-03-04T14:26:31;22.02;;;8.20;;
70549;SDS011;58101;48.658;2.328;2023-03-04T14:28:58;26.17;;;8.10;;
70549;SDS011;58101;48.658;2.328;2023-03-04T14:31:27;24.30;;;7.68;;
70549;SDS011;58101;48.658;2.328;2023-03-04T14:33:55;20.88;;;7.35;;
70549;SDS011;58101;48.658;2.328;2023-03-04T14:36:29;19.45;;;6.70;;
70549;SDS011;58101;48.658;2.328;2023-03-04T14:38:58;16.75;;;6.05;;
70549;SDS011;58101;48.658;2.328;2023-03-04T14:41:32;18.20;;;5.72;;
70549;SDS011;58101;48.658;2.328;2023-03-04T14:44:03;16.73;;;6.60;;
70549;SDS011;58101;48.658;2.328;2023-03-04T14:46:54;22.80;;;6.38;;
70549;SDS011;58101;48.658;2.328;2023-03-04T14:49:23;19.27;;;7.22;;
70549;SDS011;58101;48.658;2.328;2023-03-04T14:51:50;19.85;;;7.05;;
70549;SDS011;58101;48.658;2.328;2023-03-04T14:54:34;20.58;;;7.15;;
70549;SDS011;58101;48.658;2.328;2023-03-04T14:57:24;17.65;;;6.68;;
70549;SDS011;58101;48.658;2.328;2023-03-04T14:59:52;20.20;;;6.90;;
70549;SDS011;58101;48.658;2.328;2023-03-04T15:02:19;18.92;;;7.03;;
70549;SDS011;58101;48.658;2.328;2023-03-04T15:05:00;22.25;;;7.70;;
70549;SDS011;58101;48.658;2.328;2023-03-04T15:07:34;18.73;;;6.38;;
70549;SDS011;58101;48.658;2.328;2023-03-04T15:10:02;18.65;;;6.53;;
70549;SDS011;58101;48.658;2.328;2023-03-04T15:12:31;17.58;;;5.75;;
70549;SDS011;58101;48.658;2.328;2023-03-04T15:15:00;18.65;;;5.65;;
70549;SDS011;58101;48.658;2.328;2023-03-04T15:19:58;14.75;;;5.10;;
70549;SDS011;58101;48.658;2.328;2023-03-04T15:22:29;16.40;;;6.10;;
70549;SDS011;58101;48.658;2.328;2023-03-04T15:24:55;19.05;;;7.10;;
70549;SDS011;58101;48.658;2.328;2023-03-04T15:27:21;15.45;;;5.68;;
70549;SDS011;58101;48.658;2.328;2023-03-04T15:29:49;15.57;;;5.40;;
70549;SDS011;58101;48.658;2.328;2023-03-04T15:32:16;17.77;;;5.53;;
70549;SDS011;58101;48.658;2.328;2023-03-04T15:34:41;37.10;;;14.45;;
70549;SDS011;58101;48.658;2.328;2023-03-04T15:37:08;15.55;;;5.30;;
70549;SDS011;58101;48.658;2.328;2023-03-04T15:39:43;19.85;;;4.80;;
70549;SDS011;58101;48.658;2.328;2023-03-04T15:42:10;16.05;;;5.00;;
70549;SDS011;58101;48.658;2.328;2023-03-04T15:44:37;13.75;;;4.47;;
70549;SDS011;58101;48.658;2.328;2023-03-04T15:47:03;17.13;;;5.90;;
70549;SDS011;58101;48.658;2.328;2023-03-04T15:49:32;11.10;;;3.92;;
70549;SDS011;58101;48.658;2.328;2023-03-04T15:51:58;13.98;;;4.47;;
70549;SDS011;58101;48.658;2.328;2023-03-04T15:54:25;14.65;;;4.60;;
70549;SDS011;58101;48.658;2.328;2023-03-04T15:56:52;21.83;;;7.10;;
70549;SDS011;58101;48.658;2.328;2023-03-04T15:59:19;18.40;;;5.25;;
70549;SDS011;58101;48.658;2.328;2023-03-04T16:01:46;14.15;;;4.72;;
70549;SDS011;58101;48.658;2.328;2023-03-04T16:04:12;16.52;;;5.28;;
70549;SDS011;58101;48.658;2.328;2023-03-04T16:06:40;14.45;;;4.53;;
70549;SDS011;58101;48.658;2.328;2023-03-04T16:09:08;20.48;;;6.03;;
70549;SDS011;58101;48.658;2.328;2023-03-04T16:11:38;16.95;;;6.57;;
70549;SDS011;58101;48.658;2.328;2023-03-04T16:14:08;13.05;;;4.95;;
70549;SDS011;58101;48.658;2.328;2023-03-04T16:16:35;14.93;;;4.78;;
70549;SDS011;58101;48.658;2.328;2023-03-04T16:19:01;14.45;;;5.72;;
70549;SDS011;58101;48.658;2.328;2023-03-04T16:21:27;15.23;;;4.97;;
70549;SDS011;58101;48.658;2.328;2023-03-04T16:23:52;17.02;;;5.40;;
70549;SDS011;58101;48.658;2.328;2023-03-04T16:26:22;17.63;;;5.10;;
70549;SDS011;58101;48.658;2.328;2023-03-04T16:28:50;19.33;;;6.95;;